Time;durP1;ratioP1;P1;durP2;ratioP2;P2;SDS_P1;SDS_P2;PMS_P1;PMS_P2;Temp;Humidity;BMP_temperature;BMP_pressure;BME280_temperature;BME280_humidity;BME280_pressure;Samples;Min_cycle;Max_cycle;Signal;HPM_P1;HPM_P2
2023/07/17 00:01:59;;;;;;;3.77;3.13;;;;;;;;;;5068970;28;20225;-86
2023/07/17 00:04:26;;;;;;;8.37;3.13;;;;;;;;;;5077314;28;20247;-86
2023/07/17 00:06:53;;;;;;;6.93;3.50;;;;;;;;;;5083810;28;20682;-86
2023/07/17 00:09:20;;;;;;;5.37;3.27;;;;;;;;;;5071864;28;20229;-86
2023/07/17 00:11:47;;;;;;;6.50;3.27;;;;;;;;;;5072423;28;20209;-86
2023/07/17 00:14:15;;;;;;;3.53;2.70;;;;;;;;;;5072202;28;20229;-86
2023/07/17 00:16:42;;;;;;;5.33;3.00;;;;;;;;;;5071997;28;20221;-86
2023/07/17 00:19:09;;;;;;;5.87;3.50;;;;;;;;;;5077638;28;20237;-86
2023/07/17 00:21:36;;;;;;;4.70;3.70;;;;;;;;;;5067523;28;20225;-86
2023/07/17 00:24:04;;;;;;;5.07;3.23;;;;;;;;;;5081550;28;20239;-85
2023/07/17 00:26:31;;;;;;;4.20;3.30;;;;;;;;;;5078305;28;20287;-85
2023/07/17 00:29:18;;;;;;;3.53;3.00;;;;;;;;;;5081069;28;20229;-86
2023/07/17 00:31:46;;;;;;;6.40;3.30;;;;;;;;;;5075751;28;20216;-86
2023/07/17 00:34:13;;;;;;;3.90;2.93;;;;;;;;;;5075074;28;20240;-86
2023/07/17 00:36:41;;;;;;;4.77;2.90;;;;;;;;;;5072020;28;20236;-86
2023/07/17 00:39:08;;;;;;;5.17;2.90;;;;;;;;;;5074131;28;20221;-86
2023/07/17 00:41:35;;;;;;;4.80;3.80;;;;;;;;;;5070849;28;20221;-86
2023/07/17 00:44:03;;;;;;;3.37;3.00;;;;;;;;;;5074913;28;20232;-85
2023/07/17 00:46:30;;;;;;;3.83;3.27;;;;;;;;;;5078205;28;20690;-85
2023/07/17 00:48:59;;;;;;;3.63;2.67;;;;;;;;;;5082964;28;20229;-86
2023/07/17 00:51:26;;;;;;;4.90;2.90;;;;;;;;;;5068024;28;20201;-86
2023/07/17 00:53:54;;;;;;;4.30;3.17;;;;;;;;;;5075352;28;20253;-86
2023/07/17 00:56:21;;;;;;;4.87;3.30;;;;;;;;;;5087556;28;20233;-86
2023/07/17 00:58:48;;;;;;;4.17;3.07;;;;;;;;;;5086948;28;20327;-86
2023/07/17 01:01:16;;;;;;;7.10;3.40;;;;;;;;;;5075837;28;20225;-85
2023/07/17 01:03:43;;;;;;;3.93;3.10;;;;;;;;;;5082655;28;20229;-85
2023/07/17 01:06:11;;;;;;;3.73;3.10;;;;;;;;;;5065416;28;20230;-85
2023/07/17 01:08:39;;;;;;;9.17;3.60;;;;;;;;;;5081865;28;20228;-85
2023/07/17 01:11:06;;;;;;;3.50;3.00;;;;;;;;;;5079152;28;20205;-85
2023/07/17 01:13:43;;;;;;;8.77;3.13;;;;;;;;;;5080965;28;20229;-85
2023/07/17 01:16:10;;;;;;;7.57;3.27;;;;;;;;;;5075732;28;20229;-85
2023/07/17 01:18:37;;;;;;;5.27;3.30;;;;;;;;;;5074908;28;20229;-85
2023/07/17 01:21:06;;;;;;;4.40;3.30;;;;;;;;;;5085064;28;20227;-85
2023/07/17 01:23:34;;;;;;;4.57;3.40;;;;;;;;;;5085978;28;20591;-85
2023/07/17 01:26:02;;;;;;;3.37;2.93;;;;;;;;;;5072301;28;20225;-85
2023/07/17 01:28:29;;;;;;;4.70;3.20;;;;;;;;;;5073893;28;20229;-85
2023/07/17 01:30:56;;;;;;;3.90;3.10;;;;;;;;;;5074445;28;20210;-86
2023/07/17 01:33:23;;;;;;;4.57;3.13;;;;;;;;;;5072047;28;20225;-86
2023/07/17 01:35:50;;;;;;;6.70;3.40;;;;;;;;;;5074182;28;20591;-85
2023/07/17 01:38:17;;;;;;;4.47;3.07;;;;;;;;;;5073482;28;20236;-86
2023/07/17 01:40:45;;;;;;;5.37;3.07;;;;;;;;;;5079233;28;20232;-86
2023/07/17 01:43:12;;;;;;;6.83;3.50;;;;;;;;;;5090469;28;20232;-85
2023/07/17 01:45:39;;;;;;;3.97;3.17;;;;;;;;;;5073233;28;20245;-85
2023/07/17 01:48:07;;;;;;;4.13;2.73;;;;;;;;;;5081757;28;20258;-85
2023/07/17 01:50:34;;;;;;;4.50;3.37;;;;;;;;;;5088658;28;20209;-85
2023/07/17 01:53:01;;;;;;;5.93;3.40;;;;;;;;;;5079615;28;20236;-85
2023/07/17 01:55:28;;;;;;;6.57;3.07;;;;;;;;;;5068428;28;20591;-86
2023/07/17 01:57:57;;;;;;;3.90;3.10;;;;;;;;;;5078734;28;20702;-85
2023/07/17 02:00:24;;;;;;;4.20;3.23;;;;;;;;;;5082856;28;20674;-86
2023/07/17 02:02:51;;;;;;;4.43;3.17;;;;;;;;;;5077892;28;20236;-85
2023/07/17 02:05:20;;;;;;;5.43;3.10;;;;;;;;;;5082414;28;20694;-86
2023/07/17 02:07:47;;;;;;;4.50;3.03;;;;;;;;;;5066679;28;20244;-85
2023/07/17 02:10:14;;;;;;;4.00;3.00;;;;;;;;;;5066215;28;20205;-86
2023/07/17 02:12:41;;;;;;;4.40;3.27;;;;;;;;;;5073520;28;20240;-86
2023/07/17 02:15:12;;;;;;;5.30;3.30;;;;;;;;;;5074189;28;20236;-85
2023/07/17 02:17:39;;;;;;;5.37;3.20;;;;;;;;;;5084193;28;20250;-86
2023/07/17 02:20:10;;;;;;;5.37;3.27;;;;;;;;;;5074601;28;20217;-85
2023/07/17 02:22:37;;;;;;;6.57;3.40;;;;;;;;;;5073358;28;20245;-84
2023/07/17 02:25:05;;;;;;;5.23;3.27;;;;;;;;;;5073527;28;20622;-84
2023/07/17 02:27:32;;;;;;;4.63;2.90;;;;;;;;;;5077561;28;20771;-85
2023/07/17 02:29:59;;;;;;;4.20;3.17;;;;;;;;;;5091468;28;20204;-85
2023/07/17 02:32:28;;;;;;;3.73;3.10;;;;;;;;;;5066385;28;20247;-87
2023/07/17 02:34:55;;;;;;;4.57;3.40;;;;;;;;;;5073967;28;20241;-86
2023/07/17 02:37:22;;;;;;;5.17;2.93;;;;;;;;;;5066639;28;20209;-85
2023/07/17 02:39:50;;;;;;;6.33;3.33;;;;;;;;;;5071617;28;20209;-85
2023/07/17 02:42:17;;;;;;;4.97;3.13;;;;;;;;;;5077488;28;20252;-85
2023/07/17 02:44:44;;;;;;;4.53;3.07;;;;;;;;;;5085746;28;20566;-85
2023/07/17 02:47:11;;;;;;;5.20;3.47;;;;;;;;;;5079452;28;20576;-85
2023/07/17 02:49:40;;;;;;;4.77;3.17;;;;;;;;;;5073381;28;20212;-85
2023/07/17 02:52:07;;;;;;;5.40;3.23;;;;;;;;;;5073173;28;20213;-85
2023/07/17 02:54:36;;;;;;;4.80;3.77;;;;;;;;;;5080095;28;20209;-85
2023/07/17 02:57:04;;;;;;;6.63;3.60;;;;;;;;;;5082809;28;20649;-86
2023/07/17 02:59:31;;;;;;;4.03;3.27;;;;;;;;;;5080031;28;20229;-85
2023/07/17 03:01:58;;;;;;;4.50;3.37;;;;;;;;;;5072729;28;20252;-85
2023/07/17 03:04:25;;;;;;;5.47;2.93;;;;;;;;;;5081305;28;20225;-85
2023/07/17 03:06:54;;;;;;;4.83;3.10;;;;;;;;;;5081582;28;20255;-85
2023/07/17 03:09:21;;;;;;;4.47;3.00;;;;;;;;;;5075385;28;20224;-86
2023/07/17 03:11:48;;;;;;;4.57;3.10;;;;;;;;;;5073162;28;20208;-86
2023/07/17 03:14:15;;;;;;;4.47;3.10;;;;;;;;;;5070507;28;20317;-85
2023/07/17 03:16:42;;;;;;;8.93;3.40;;;;;;;;;;5073013;28;20244;-85
2023/07/17 03:19:10;;;;;;;6.27;3.67;;;;;;;;;;5072319;28;20229;-85
2023/07/17 03:21:37;;;;;;;4.13;3.40;;;;;;;;;;5073156;28;20232;-86
2023/07/17 03:24:06;;;;;;;5.90;3.30;;;;;;;;;;5075495;28;20711;-85
2023/07/17 03:26:33;;;;;;;6.67;3.50;;;;;;;;;;5083519;28;20221;-85
2023/07/17 03:29:00;;;;;;;6.63;3.33;;;;;;;;;;5079149;28;20235;-85
2023/07/17 03:31:27;;;;;;;5.43;3.50;;;;;;;;;;5076505;28;20204;-86
2023/07/17 03:33:54;;;;;;;8.87;3.33;;;;;;;;;;5076347;28;20229;-85
2023/07/17 03:36:21;;;;;;;5.10;3.80;;;;;;;;;;5075256;28;20223;-85
2023/07/17 03:38:48;;;;;;;4.13;3.00;;;;;;;;;;5078157;28;20239;-85
2023/07/17 03:41:20;;;;;;;4.80;3.00;;;;;;;;;;5072637;28;20226;-86
2023/07/17 03:43:47;;;;;;;4.10;2.87;;;;;;;;;;5071993;28;20623;-85
2023/07/17 03:46:14;;;;;;;4.17;3.03;;;;;;;;;;5076799;28;20228;-84
2023/07/17 03:48:41;;;;;;;4.67;3.13;;;;;;;;;;5077955;28;20236;-85
2023/07/17 03:51:08;;;;;;;6.40;3.20;;;;;;;;;;5071396;28;20212;-85
2023/07/17 03:53:35;;;;;;;4.77;3.37;;;;;;;;;;5070391;28;20722;-85
2023/07/17 03:56:02;;;;;;;6.40;3.33;;;;;;;;;;5067003;28;20234;-83
2023/07/17 03:58:31;;;;;;;6.40;3.50;;;;;;;;;;5078991;28;20683;-83
2023/07/17 04:00:58;;;;;;;8.70;3.30;;;;;;;;;;5071583;28;20209;-83
2023/07/17 04:03:25;;;;;;;4.40;3.13;;;;;;;;;;5075533;28;20227;-83
2023/07/17 04:05:52;;;;;;;4.57;3.77;;;;;;;;;;5087738;28;20250;-83
2023/07/17 04:08:19;;;;;;;4.60;3.40;;;;;;;;;;5075605;28;20221;-84
2023/07/17 04:10:46;;;;;;;7.10;3.23;;;;;;;;;;5069697;28;20666;-84
2023/07/17 04:13:14;;;;;;;3.83;3.07;;;;;;;;;;5073651;28;20229;-83
2023/07/17 04:15:43;;;;;;;5.27;3.40;;;;;;;;;;5081049;28;20232;-83
2023/07/17 04:18:10;;;;;;;5.53;3.83;;;;;;;;;;5070498;28;20236;-83
2023/07/17 04:20:41;;;;;;;3.57;2.80;;;;;;;;;;5081781;28;20228;-84
2023/07/17 04:23:08;;;;;;;5.00;3.37;;;;;;;;;;5077316;28;20245;-83
2023/07/17 04:25:35;;;;;;;4.00;3.43;;;;;;;;;;5082493;28;20225;-84
2023/07/17 04:28:03;;;;;;;6.97;3.60;;;;;;;;;;5066522;28;20259;-84
2023/07/17 04:30:30;;;;;;;7.43;3.13;;;;;;;;;;5088141;28;20262;-84
2023/07/17 04:32:59;;;;;;;6.40;3.57;;;;;;;;;;5073067;28;20230;-84
2023/07/17 04:35:26;;;;;;;5.83;3.60;;;;;;;;;;5070750;28;20232;-83
2023/07/17 04:37:56;;;;;;;5.57;3.43;;;;;;;;;;5068855;28;20233;-84
2023/07/17 04:40:23;;;;;;;4.33;3.20;;;;;;;;;;5069433;28;20223;-83
2023/07/17 04:42:50;;;;;;;4.93;3.50;;;;;;;;;;5086328;28;20237;-84
2023/07/17 04:45:19;;;;;;;7.97;3.50;;;;;;;;;;5075659;28;20734;-84
2023/07/17 04:47:46;;;;;;;6.83;3.50;;;;;;;;;;5080216;28;20257;-83
2023/07/17 04:50:15;;;;;;;6.43;3.40;;;;;;;;;;5076471;28;20216;-83
2023/07/17 04:52:42;;;;;;;5.20;3.57;;;;;;;;;;5074210;28;20336;-83
2023/07/17 04:55:09;;;;;;;5.93;3.33;;;;;;;;;;5074351;28;20233;-83
2023/07/17 04:57:36;;;;;;;4.93;3.37;;;;;;;;;;5073196;28;20241;-83
2023/07/17 05:00:05;;;;;;;4.87;3.83;;;;;;;;;;5079210;28;20200;-82
2023/07/17 05:02:32;;;;;;;4.97;3.50;;;;;;;;;;5068234;28;20245;-83
2023/07/17 05:04:59;;;;;;;6.93;3.63;;;;;;;;;;5075577;28;20244;-82
2023/07/17 05:07:27;;;;;;;6.60;3.50;;;;;;;;;;5094207;28;20265;-84
2023/07/17 05:09:54;;;;;;;6.67;3.57;;;;;;;;;;5080168;28;20224;-83
2023/07/17 05:12:21;;;;;;;6.80;3.87;;;;;;;;;;5074750;28;20244;-84
2023/07/17 05:14:48;;;;;;;9.87;4.00;;;;;;;;;;5073861;28;20209;-84
2023/07/17 05:17:15;;;;;;;6.67;3.37;;;;;;;;;;5073730;28;20205;-83
2023/07/17 05:19:42;;;;;;;6.93;3.57;;;;;;;;;;5087653;28;20200;-84
2023/07/17 05:22:09;;;;;;;4.53;3.53;;;;;;;;;;5085712;28;20217;-84
2023/07/17 05:24:38;;;;;;;4.07;3.40;;;;;;;;;;5088021;28;20209;-84
2023/07/17 05:27:05;;;;;;;5.33;3.50;;;;;;;;;;5094984;28;20212;-84
2023/07/17 05:29:33;;;;;;;9.23;3.67;;;;;;;;;;5066347;28;20217;-83
2023/07/17 05:32:00;;;;;;;5.60;3.57;;;;;;;;;;5074412;28;20229;-85
2023/07/17 05:34:27;;;;;;;10.43;3.57;;;;;;;;;;5075164;28;20228;-84
2023/07/17 05:36:54;;;;;;;6.30;3.63;;;;;;;;;;5079641;28;20221;-84
2023/07/17 05:39:21;;;;;;;4.90;3.20;;;;;;;;;;5081891;28;20222;-84
2023/07/17 05:41:49;;;;;;;6.17;3.37;;;;;;;;;;5080715;28;20205;-83
2023/07/17 05:44:16;;;;;;;4.93;3.20;;;;;;;;;;5082618;28;20240;-84
2023/07/17 05:46:43;;;;;;;5.80;3.97;;;;;;;;;;5081055;28;20254;-83
2023/07/17 05:49:10;;;;;;;9.07;3.90;;;;;;;;;;5082931;28;20232;-84
2023/07/17 05:51:37;;;;;;;3.60;2.97;;;;;;;;;;5083833;28;20217;-84
2023/07/17 05:54:23;;;;;;;6.90;3.63;;;;;;;;;;5063923;28;20244;-85
2023/07/17 05:56:52;;;;;;;7.93;3.50;;;;;;;;;;5089028;28;20224;-84
2023/07/17 05:59:19;;;;;;;6.33;3.37;;;;;;;;;;5096063;28;20216;-86
2023/07/17 06:01:46;;;;;;;5.67;3.53;;;;;;;;;;5088828;28;20197;-85
2023/07/17 06:04:13;;;;;;;4.33;3.13;;;;;;;;;;5105870;28;20225;-85
2023/07/17 06:06:40;;;;;;;8.03;3.60;;;;;;;;;;5098631;28;20589;-84
2023/07/17 06:09:07;;;;;;;5.33;3.57;;;;;;;;;;5097612;28;20213;-84
2023/07/17 06:11:34;;;;;;;7.40;4.00;;;;;;;;;;5090149;28;20206;-86
2023/07/17 06:14:03;;;;;;;4.80;3.17;;;;;;;;;;5072876;28;20225;-84
2023/07/17 06:16:30;;;;;;;6.85;3.45;;;;;;;;;;5076422;28;20221;-85
2023/07/17 06:18:57;;;;;;;6.67;3.73;;;;;;;;;;5075017;28;20249;-84
2023/07/17 06:21:24;;;;;;;6.10;3.30;;;;;;;;;;5074402;28;20216;-84
2023/07/17 06:23:51;;;;;;;6.70;3.28;;;;;;;;;;5073403;28;20256;-84
2023/07/17 06:26:18;;;;;;;6.95;3.60;;;;;;;;;;5082001;28;20699;-84
2023/07/17 06:28:46;;;;;;;7.28;3.40;;;;;;;;;;5074026;28;20239;-84
2023/07/17 06:31:15;;;;;;;12.55;3.40;;;;;;;;;;5081873;28;20209;-84
2023/07/17 06:33:42;;;;;;;5.47;3.08;;;;;;;;;;5077786;28;20225;-84
2023/07/17 06:36:09;;;;;;;5.40;3.10;;;;;;;;;;5077350;28;20228;-84
2023/07/17 06:38:36;;;;;;;4.30;3.08;;;;;;;;;;5073134;28;20237;-84
2023/07/17 06:41:03;;;;;;;6.10;3.17;;;;;;;;;;5073417;28;20217;-83
2023/07/17 06:43:30;;;;;;;3.78;2.83;;;;;;;;;;5072324;28;20620;-83
2023/07/17 06:45:57;;;;;;;7.65;3.10;;;;;;;;;;5072998;28;20221;-83
2023/07/17 06:48:25;;;;;;;8.00;3.20;;;;;;;;;;5072456;28;20286;-83
2023/07/17 06:50:53;;;;;;;4.55;2.80;;;;;;;;;;5072940;28;20205;-82
2023/07/17 06:53:20;;;;;;;4.38;3.22;;;;;;;;;;5071765;28;20233;-82
2023/07/17 06:55:47;;;;;;;7.13;3.33;;;;;;;;;;5073038;28;20226;-85
2023/07/17 06:58:15;;;;;;;7.10;3.30;;;;;;;;;;5080918;28;20231;-88
2023/07/17 07:00:44;;;;;;;3.75;3.33;;;;;;;;;;5073719;28;20198;-83
2023/07/17 07:03:11;;;;;;;7.18;3.53;;;;;;;;;;5080307;28;20240;-82
2023/07/17 07:05:40;;;;;;;3.95;2.67;;;;;;;;;;5073934;28;20231;-84
2023/07/17 07:08:08;;;;;;;5.68;2.75;;;;;;;;;;5072840;28;20224;-84
2023/07/17 07:10:35;;;;;;;5.07;2.90;;;;;;;;;;5076859;28;20204;-85
2023/07/17 07:13:02;;;;;;;5.70;2.92;;;;;;;;;;5073998;28;20229;-85
2023/07/17 07:15:29;;;;;;;5.22;3.33;;;;;;;;;;5084079;28;20218;-86
2023/07/17 07:17:56;;;;;;;4.70;2.80;;;;;;;;;;5078659;28;20233;-86
2023/07/17 07:20:23;;;;;;;5.88;2.85;;;;;;;;;;5067577;28;20212;-86
2023/07/17 07:22:52;;;;;;;3.80;3.03;;;;;;;;;;5072745;28;20236;-85
2023/07/17 07:25:19;;;;;;;6.57;3.05;;;;;;;;;;5071767;28;20213;-85
2023/07/17 07:27:46;;;;;;;6.88;3.05;;;;;;;;;;5085424;28;20232;-85
2023/07/17 07:30:13;;;;;;;3.58;2.83;;;;;;;;;;5075925;28;20206;-85
2023/07/17 07:32:41;;;;;;;5.43;3.00;;;;;;;;;;5075325;28;20496;-85
2023/07/17 07:35:09;;;;;;;6.50;3.47;;;;;;;;;;5082728;28;20779;-83
2023/07/17 07:37:36;;;;;;;5.25;3.17;;;;;;;;;;5071786;28;20889;-88
2023/07/17 07:40:06;;;;;;;4.38;3.13;;;;;;;;;;5076910;28;20193;-87
2023/07/17 07:42:33;;;;;;;3.97;2.72;;;;;;;;;;5089491;28;20232;-85
2023/07/17 07:45:00;;;;;;;4.63;3.00;;;;;;;;;;5081066;28;20213;-85
2023/07/17 07:47:27;;;;;;;4.18;2.95;;;;;;;;;;5082983;28;20591;-85
2023/07/17 07:49:54;;;;;;;5.65;2.60;;;;;;;;;;5091979;28;20194;-85
2023/07/17 07:52:21;;;;;;;4.13;2.58;;;;;;;;;;5080336;28;20212;-85
2023/07/17 07:54:48;;;;;;;4.22;2.50;;;;;;;;;;5071722;28;20194;-86
2023/07/17 07:57:16;;;;;;;4.47;3.00;;;;;;;;;;5080128;28;20208;-86
2023/07/17 07:59:43;;;;;;;7.05;3.13;;;;;;;;;;5070058;28;20202;-85
2023/07/17 08:02:11;;;;;;;3.72;2.75;;;;;;;;;;5080301;28;20209;-85
2023/07/17 08:04:39;;;;;;;4.43;2.80;;;;;;;;;;5064310;28;20216;-86
2023/07/17 08:07:07;;;;;;;4.30;2.75;;;;;;;;;;5072621;28;20201;-86
2023/07/17 08:09:34;;;;;;;6.40;2.85;;;;;;;;;;5075529;28;20243;-85
2023/07/17 08:12:01;;;;;;;6.22;2.63;;;;;;;;;;5085666;28;20824;-86
2023/07/17 08:14:29;;;;;;;6.13;2.92;;;;;;;;;;5080800;28;20221;-86
2023/07/17 08:16:56;;;;;;;3.95;2.53;;;;;;;;;;5086016;28;20205;-85
2023/07/17 08:19:23;;;;;;;4.43;2.88;;;;;;;;;;5081628;28;20228;-85
2023/07/17 08:21:51;;;;;;;3.33;2.53;;;;;;;;;;5071007;28;20717;-86
2023/07/17 08:24:19;;;;;;;4.72;2.50;;;;;;;;;;5080388;28;20228;-86
2023/07/17 08:26:46;;;;;;;5.47;3.03;;;;;;;;;;5072873;28;20575;-84
2023/07/17 08:29:13;;;;;;;5.53;2.25;;;;;;;;;;5080683;28;20225;-86
2023/07/17 08:31:41;;;;;;;3.72;2.83;;;;;;;;;;5077829;28;20212;-86
2023/07/17 08:34:09;;;;;;;5.00;2.78;;;;;;;;;;5077834;28;20221;-87
2023/07/17 08:36:36;;;;;;;2.78;2.10;;;;;;;;;;5076536;28;20233;-86
2023/07/17 08:39:04;;;;;;;5.15;2.65;;;;;;;;;;5083414;28;20281;-83
2023/07/17 08:41:31;;;;;;;4.68;2.40;;;;;;;;;;5081972;28;20205;-85
2023/07/17 08:43:59;;;;;;;4.00;2.45;;;;;;;;;;5081963;28;20221;-85
2023/07/17 08:46:27;;;;;;;4.18;2.58;;;;;;;;;;5081297;28;20224;-85
2023/07/17 08:48:56;;;;;;;4.28;2.63;;;;;;;;;;5083085;28;20225;-86
2023/07/17 08:51:24;;;;;;;3.97;2.20;;;;;;;;;;5077560;28;20617;-86
2023/07/17 08:53:52;;;;;;;5.45;2.35;;;;;;;;;;5076957;28;20225;-85
2023/07/17 08:56:20;;;;;;;9.05;2.55;;;;;;;;;;5080367;28;20221;-84
2023/07/17 08:58:47;;;;;;;2.92;2.20;;;;;;;;;;5080289;28;20229;-85
2023/07/17 09:01:14;;;;;;;4.40;2.70;;;;;;;;;;5083330;28;20204;-84
2023/07/17 09:03:42;;;;;;;7.80;2.50;;;;;;;;;;5085511;28;20238;-86
2023/07/17 09:06:14;;;;;;;4.65;2.45;;;;;;;;;;5088000;28;20221;-85
2023/07/17 09:08:41;;;;;;;4.47;2.67;;;;;;;;;;5078977;28;20233;-85
2023/07/17 09:11:09;;;;;;;4.45;2.33;;;;;;;;;;5079645;28;20194;-86
2023/07/17 09:13:39;;;;;;;2.45;1.80;;;;;;;;;;5084841;28;20232;-86
2023/07/17 09:16:13;;;;;;;3.50;1.90;;;;;;;;;;5076326;28;20224;-85
2023/07/17 09:18:41;;;;;;;3.53;2.00;;;;;;;;;;5082477;28;20320;-84
2023/07/17 09:21:08;;;;;;;3.42;2.10;;;;;;;;;;5081153;28;20659;-85
2023/07/17 09:23:40;;;;;;;4.03;2.50;;;;;;;;;;5077101;28;20233;-85
2023/07/17 09:26:08;;;;;;;4.10;2.20;;;;;;;;;;5082111;28;20217;-85
2023/07/17 09:28:38;;;;;;;3.03;2.08;;;;;;;;;;5073291;28;20309;-85
2023/07/17 09:31:05;;;;;;;4.95;2.50;;;;;;;;;;5080489;28;20209;-85
2023/07/17 09:33:37;;;;;;;2.30;2.10;;;;;;;;;;5078964;28;20316;-90
2023/07/17 09:36:05;;;;;;;6.95;2.33;;;;;;;;;;5077322;28;20745;-88
2023/07/17 09:38:33;;;;;;;4.00;2.20;;;;;;;;;;5084156;28;20232;-86
2023/07/17 09:41:02;;;;;;;3.63;2.40;;;;;;;;;;5085193;28;20729;-92
2023/07/17 09:43:32;;;;;;;4.10;2.83;;;;;;;;;;5084675;28;20228;-89
2023/07/17 09:46:00;;;;;;;3.38;1.98;;;;;;;;;;5079756;28;20660;-91
2023/07/17 09:48:28;;;;;;;4.57;2.47;;;;;;;;;;5071376;28;20321;-85
2023/07/17 09:50:57;;;;;;;3.08;2.42;;;;;;;;;;5081717;28;20339;-85
2023/07/17 09:53:25;;;;;;;5.78;2.20;;;;;;;;;;5081279;28;20309;-85
2023/07/17 09:55:53;;;;;;;7.07;2.38;;;;;;;;;;5081817;28;20656;-85
2023/07/17 09:58:23;;;;;;;3.47;2.40;;;;;;;;;;5082732;28;20337;-86
2023/07/17 10:00:50;;;;;;;5.53;2.70;;;;;;;;;;5078549;28;20211;-82
2023/07/17 10:03:20;;;;;;;5.10;2.50;;;;;;;;;;5080574;28;20243;-86
2023/07/17 10:05:48;;;;;;;4.43;1.90;;;;;;;;;;5065916;28;20261;-87
2023/07/17 10:08:16;;;;;;;4.20;2.30;;;;;;;;;;5074066;28;20390;-86
2023/07/17 10:10:43;;;;;;;2.72;2.00;;;;;;;;;;5085333;28;20204;-85
2023/07/17 10:13:11;;;;;;;3.65;2.15;;;;;;;;;;5083542;28;20713;-87
2023/07/17 10:15:40;;;;;;;3.08;2.25;;;;;;;;;;5073830;28;20229;-86
2023/07/17 10:18:09;;;;;;;5.30;2.50;;;;;;;;;;5073249;28;20232;-85
2023/07/17 10:20:37;;;;;;;11.63;2.33;;;;;;;;;;5081951;28;20752;-86
2023/07/17 10:23:04;;;;;;;3.75;2.63;;;;;;;;;;5081574;28;20225;-85
2023/07/17 10:25:32;;;;;;;4.60;2.55;;;;;;;;;;5079863;28;20235;-86
2023/07/17 10:28:00;;;;;;;2.78;2.45;;;;;;;;;;5073615;28;20229;-86
2023/07/17 10:30:28;;;;;;;4.13;2.35;;;;;;;;;;5075961;28;20209;-88
2023/07/17 10:33:07;;;;;;;4.57;2.55;;;;;;;;;;5073425;28;20240;-87
2023/07/17 10:35:45;;;;;;;7.25;2.60;;;;;;;;;;5070459;28;20221;-86
2023/07/17 10:38:12;;;;;;;2.97;2.28;;;;;;;;;;5074482;28;20635;-87
2023/07/17 10:40:42;;;;;;;3.15;2.45;;;;;;;;;;5083218;28;20212;-88
2023/07/17 10:43:13;;;;;;;3.15;2.72;;;;;;;;;;5081072;28;20229;-86
2023/07/17 10:45:40;;;;;;;4.57;2.30;;;;;;;;;;5083633;28;20224;-85
2023/07/17 10:48:09;;;;;;;4.00;2.25;;;;;;;;;;5065066;28;20233;-87
2023/07/17 10:50:36;;;;;;;6.80;2.60;;;;;;;;;;5073150;28;20201;-87
2023/07/17 10:53:04;;;;;;;2.70;2.35;;;;;;;;;;5073699;28;20232;-86
2023/07/17 10:55:32;;;;;;;4.13;2.38;;;;;;;;;;5074242;28;20244;-88
2023/07/17 10:57:59;;;;;;;3.67;2.30;;;;;;;;;;5078494;28;20232;-88
2023/07/17 11:00:26;;;;;;;3.08;2.40;;;;;;;;;;5081016;28;20213;-88
2023/07/17 11:02:56;;;;;;;2.45;1.95;;;;;;;;;;5072094;28;20236;-89
2023/07/17 11:05:24;;;;;;;3.65;2.40;;;;;;;;;;5072630;28;20256;-88
2023/07/17 11:07:52;;;;;;;3.88;2.42;;;;;;;;;;5063512;28;20282;-89
2023/07/17 11:10:19;;;;;;;4.22;2.28;;;;;;;;;;5072333;28;20201;-87
2023/07/17 11:12:46;;;;;;;4.05;2.10;;;;;;;;;;5071034;28;20229;-88
2023/07/17 11:15:14;;;;;;;2.40;2.00;;;;;;;;;;5072356;28;20213;-89
2023/07/17 11:17:42;;;;;;;5.55;2.00;;;;;;;;;;5079762;28;20280;-86
2023/07/17 11:20:09;;;;;;;5.05;1.85;;;;;;;;;;5072502;28;20542;-88
2023/07/17 11:22:40;;;;;;;3.47;1.67;;;;;;;;;;5071193;28;20233;-87
2023/07/17 11:25:07;;;;;;;3.17;2.55;;;;;;;;;;5079592;28;20228;-89
2023/07/17 11:27:35;;;;;;;3.03;2.15;;;;;;;;;;5072293;28;20237;-87
2023/07/17 11:30:02;;;;;;;3.03;2.00;;;;;;;;;;5074606;28;20201;-88
2023/07/17 11:32:31;;;;;;;3.75;2.20;;;;;;;;;;5073548;28;20288;-88
2023/07/17 11:35:00;;;;;;;3.25;2.00;;;;;;;;;;5077009;28;20706;-85
2023/07/17 11:37:30;;;;;;;2.47;2.13;;;;;;;;;;5072114;28;20256;-88
2023/07/17 11:39:59;;;;;;;4.70;1.77;;;;;;;;;;5080876;28;20209;-87
2023/07/17 11:42:26;;;;;;;2.75;1.90;;;;;;;;;;5070684;28;20201;-84
2023/07/17 11:44:59;;;;;;;2.40;1.80;;;;;;;;;;5071680;28;20282;-87
2023/07/17 11:47:26;;;;;;;1.70;1.60;;;;;;;;;;5081186;28;20193;-87
2023/07/17 11:49:54;;;;;;;2.50;2.15;;;;;;;;;;5072002;28;20255;-87
2023/07/17 11:52:22;;;;;;;2.38;1.45;;;;;;;;;;5071683;28;20205;-88
2023/07/17 11:54:49;;;;;;;2.88;1.83;;;;;;;;;;5082639;28;20716;-86
2023/07/17 11:57:17;;;;;;;4.60;1.77;;;;;;;;;;5072595;28;20206;-87
2023/07/17 11:59:48;;;;;;;2.53;1.77;;;;;;;;;;5080898;28;20235;-87
2023/07/17 12:02:15;;;;;;;1.67;1.52;;;;;;;;;;5079750;28;20255;-88
2023/07/17 12:04:42;;;;;;;1.80;1.63;;;;;;;;;;5079800;28;20235;-88
2023/07/17 12:07:20;;;;;;;5.05;2.33;;;;;;;;;;5071530;28;20202;-88
2023/07/17 12:09:49;;;;;;;2.30;1.55;;;;;;;;;;5081473;28;20204;-88
2023/07/17 12:12:18;;;;;;;2.10;1.90;;;;;;;;;;5080069;28;20193;-89
2023/07/17 12:14:46;;;;;;;4.15;1.92;;;;;;;;;;5082616;28;20209;-88
2023/07/17 12:17:13;;;;;;;3.25;2.15;;;;;;;;;;5071789;28;20259;-86
2023/07/17 12:19:41;;;;;;;4.55;1.88;;;;;;;;;;5072588;28;20206;-87
2023/07/17 12:22:08;;;;;;;3.42;1.90;;;;;;;;;;5082678;28;20288;-87
2023/07/17 12:24:35;;;;;;;1.95;1.60;;;;;;;;;;5076617;28;20233;-87
2023/07/17 12:27:02;;;;;;;4.35;1.85;;;;;;;;;;5086039;28;20678;-87
2023/07/17 12:29:32;;;;;;;3.35;1.85;;;;;;;;;;5078081;28;20226;-88
2023/07/17 12:31:59;;;;;;;7.75;1.98;;;;;;;;;;5075752;28;20675;-87
2023/07/17 12:34:26;;;;;;;3.33;2.05;;;;;;;;;;5077809;28;20217;-88
2023/07/17 12:36:53;;;;;;;2.47;2.00;;;;;;;;;;5088464;28;20228;-91
2023/07/17 12:39:22;;;;;;;2.55;1.92;;;;;;;;;;5077214;28;20236;-90
2023/07/17 12:41:49;;;;;;;2.72;1.80;;;;;;;;;;5080033;28;20247;-87
2023/07/17 12:44:16;;;;;;;4.10;2.50;;;;;;;;;;5081167;28;20224;-86
2023/07/17 12:46:45;;;;;;;3.03;1.85;;;;;;;;;;5082216;28;20600;-88
2023/07/17 12:49:12;;;;;;;2.17;1.50;;;;;;;;;;5073878;28;20229;-86
2023/07/17 12:51:40;;;;;;;3.78;2.20;;;;;;;;;;5082225;28;20206;-86
2023/07/17 12:54:07;;;;;;;6.88;2.00;;;;;;;;;;5073650;28;20229;-86
2023/07/17 12:56:34;;;;;;;2.13;1.92;;;;;;;;;;5073717;28;20229;-86
2023/07/17 12:59:01;;;;;;;6.20;2.10;;;;;;;;;;5073661;28;20221;-87
2023/07/17 13:01:29;;;;;;;2.63;1.80;;;;;;;;;;5074173;28;20228;-87
2023/07/17 13:03:57;;;;;;;2.60;2.10;;;;;;;;;;5072786;28;20225;-87
2023/07/17 13:06:25;;;;;;;3.83;2.40;;;;;;;;;;5078086;28;20359;-87
2023/07/17 13:08:52;;;;;;;3.28;2.10;;;;;;;;;;5080655;28;20231;-87
2023/07/17 13:11:20;;;;;;;4.78;2.58;;;;;;;;;;5078622;28;20594;-86
2023/07/17 13:13:47;;;;;;;3.45;2.28;;;;;;;;;;5081352;28;20229;-87
2023/07/17 13:16:14;;;;;;;4.25;2.53;;;;;;;;;;5081660;28;20232;-86
2023/07/17 13:18:41;;;;;;;3.78;2.00;;;;;;;;;;5073405;28;20611;-86
2023/07/17 13:21:10;;;;;;;2.35;1.95;;;;;;;;;;5076676;28;20209;-86
2023/07/17 13:23:38;;;;;;;3.58;1.90;;;;;;;;;;5082299;28;20232;-85
2023/07/17 13:26:05;;;;;;;3.20;1.92;;;;;;;;;;5074558;28;20235;-84
2023/07/17 13:28:32;;;;;;;3.95;2.08;;;;;;;;;;5072751;28;20606;-86
2023/07/17 13:30:59;;;;;;;2.28;1.80;;;;;;;;;;5077584;28;20211;-84
2023/07/17 13:33:26;;;;;;;3.28;1.95;;;;;;;;;;5077680;28;20241;-87
2023/07/17 13:35:53;;;;;;;2.58;1.90;;;;;;;;;;5089268;28;20226;-86
2023/07/17 13:38:21;;;;;;;3.05;1.80;;;;;;;;;;5079352;28;20235;-86
2023/07/17 13:40:49;;;;;;;3.83;1.73;;;;;;;;;;5074648;28;20213;-85
2023/07/17 13:43:16;;;;;;;2.97;1.90;;;;;;;;;;5079405;28;20228;-85
2023/07/17 13:45:43;;;;;;;2.42;2.05;;;;;;;;;;5070917;28;20240;-86
2023/07/17 13:48:11;;;;;;;5.13;2.00;;;;;;;;;;5063512;28;20225;-87
2023/07/17 13:50:38;;;;;;;3.58;1.90;;;;;;;;;;5072227;28;20205;-85
2023/07/17 13:53:05;;;;;;;2.58;1.85;;;;;;;;;;5071537;28;20722;-86
2023/07/17 13:55:33;;;;;;;3.88;2.20;;;;;;;;;;5074120;28;20233;-86
2023/07/17 13:58:00;;;;;;;3.45;2.10;;;;;;;;;;5067727;28;20247;-86
2023/07/17 14:00:28;;;;;;;2.42;1.92;;;;;;;;;;5095846;28;20208;-86
2023/07/17 14:02:56;;;;;;;3.83;1.95;;;;;;;;;;5107142;28;20208;-86
2023/07/17 14:05:23;;;;;;;3.70;2.08;;;;;;;;;;5102528;28;20212;-86
2023/07/17 14:07:50;;;;;;;2.15;1.70;;;;;;;;;;5095328;28;20288;-86
2023/07/17 14:10:17;;;;;;;2.55;2.00;;;;;;;;;;5090631;28;20192;-86
2023/07/17 14:12:45;;;;;;;2.53;1.88;;;;;;;;;;5096135;28;20217;-83
2023/07/17 14:15:12;;;;;;;4.32;2.00;;;;;;;;;;5091297;28;20228;-86
2023/07/17 14:17:40;;;;;;;2.42;1.80;;;;;;;;;;5073691;28;20233;-86
2023/07/17 14:20:08;;;;;;;1.92;1.73;;;;;;;;;;5073868;28;20215;-87
2023/07/17 14:22:35;;;;;;;2.20;1.63;;;;;;;;;;5081634;28;20237;-86
2023/07/17 14:25:02;;;;;;;2.50;1.80;;;;;;;;;;5077679;28;20228;-84
2023/07/17 14:27:29;;;;;;;2.13;1.60;;;;;;;;;;5075580;28;20240;-86
2023/07/17 14:29:58;;;;;;;3.92;1.88;;;;;;;;;;5069304;28;20221;-85
2023/07/17 14:32:25;;;;;;;4.53;1.63;;;;;;;;;;5077650;28;20202;-87
2023/07/17 14:34:52;;;;;;;3.90;1.90;;;;;;;;;;5074945;28;20228;-86
2023/07/17 14:37:19;;;;;;;2.20;1.80;;;;;;;;;;5069759;28;20205;-86
2023/07/17 14:39:46;;;;;;;2.97;2.10;;;;;;;;;;5075477;28;20206;-86
2023/07/17 14:42:13;;;;;;;2.35;1.98;;;;;;;;;;5074617;28;20197;-86
2023/07/17 14:44:40;;;;;;;4.47;2.13;;;;;;;;;;5074585;28;20205;-86
2023/07/17 14:47:08;;;;;;;2.60;1.40;;;;;;;;;;5074862;28;20204;-86